createdAt,value
2023-01-28T04:38:15.473Z,12.00
2023-01-28T04:40:41.833Z,12.07
2023-01-28T04:43:09.023Z,15.38
2023-01-28T04:45:35.334Z,14.25
2023-01-28T04:48:01.667Z,12.80
2023-01-28T04:50:28.058Z,16.55
2023-01-28T04:52:54.342Z,13.43
2023-01-28T04:55:20.682Z,13.88
2023-01-28T04:57:48.177Z,14.75
2023-01-28T05:00:14.784Z,13.60
2023-01-28T05:02:41.179Z,17.60
2023-01-28T05:05:08.926Z,15.65
2023-01-28T05:07:36.281Z,15.10
2023-01-28T05:10:03.130Z,14.45
2023-01-28T05:12:30.397Z,15.93
2023-01-28T05:14:56.751Z,14.15
2023-01-28T05:17:23.064Z,13.35
2023-01-28T05:19:49.665Z,16.30
2023-01-28T05:22:15.955Z,15.18
2023-01-28T05:24:42.302Z,16.30
2023-01-28T05:27:08.720Z,16.05
2023-01-28T05:29:35.100Z,16.58
2023-01-28T05:32:01.593Z,16.30
2023-01-28T05:34:28.052Z,15.32
2023-01-28T05:36:54.350Z,13.80
2023-01-28T05:39:20.667Z,16.92
2023-01-28T05:41:47.009Z,14.05
2023-01-28T05:44:13.435Z,15.10
2023-01-28T05:46:45.165Z,14.65
2023-01-28T05:49:13.398Z,18.42
2023-01-28T05:51:40.329Z,15.73
2023-01-28T05:54:07.541Z,15.50
2023-01-28T05:56:35.003Z,17.95
2023-01-28T05:59:01.403Z,15.52
2023-01-28T06:01:27.800Z,16.73
2023-01-28T06:03:54.240Z,19.55
2023-01-28T06:06:20.735Z,19.13
2023-01-28T06:08:47.200Z,18.67
2023-01-28T06:11:13.531Z,19.17
2023-01-28T06:13:41.599Z,20.33
2023-01-28T06:16:08.185Z,16.65
2023-01-28T06:18:34.537Z,17.52
2023-01-28T06:21:00.873Z,18.25
2023-01-28T06:23:27.210Z,17.38
2023-01-28T06:25:55.056Z,18.05
2023-01-28T06:28:21.581Z,19.52
2023-01-28T06:30:49.697Z,18.80
2023-01-28T06:33:16.299Z,19.38
2023-01-28T06:35:42.783Z,17.38
2023-01-28T06:38:09.443Z,20.60
2023-01-28T06:40:35.825Z,20.13
2023-01-28T06:43:02.230Z,21.65
2023-01-28T06:45:28.713Z,19.92
2023-01-28T06:47:55.310Z,23.20
2023-01-28T06:50:21.676Z,19.63
2023-01-28T06:52:47.996Z,19.20
2023-01-28T06:55:14.434Z,22.00
2023-01-28T06:57:41.693Z,20.75
2023-01-28T07:00:10.542Z,22.05
2023-01-28T07:02:37.713Z,20.73
2023-01-28T07:05:05.068Z,20.80
2023-01-28T07:07:31.534Z,21.63
2023-01-28T07:09:58.059Z,22.17
2023-01-28T07:12:24.600Z,20.30
2023-01-28T07:14:50.954Z,20.65
2023-01-28T07:17:17.312Z,22.08
2023-01-28T07:19:43.635Z,20.50
2023-01-28T07:22:09.960Z,23.95
2023-01-28T07:24:36.269Z,23.90
2023-01-28T07:27:03.555Z,20.92
2023-01-28T07:29:30.066Z,20.42
2023-01-28T07:31:56.416Z,22.00
2023-01-28T07:34:22.800Z,22.50
2023-01-28T07:36:49.124Z,23.92
2023-01-28T07:39:15.432Z,21.90
2023-01-28T07:41:41.849Z,25.33
2023-01-28T07:44:08.165Z,25.88
2023-01-28T07:46:34.459Z,23.98
2023-01-28T07:49:00.887Z,23.80
2023-01-28T07:51:27.190Z,22.10
2023-01-28T07:53:53.503Z,23.67
2023-01-28T07:56:19.850Z,25.13
2023-01-28T07:58:49.798Z,33.47
2023-01-28T08:01:16.207Z,26.80
2023-01-28T08:03:42.585Z,25.40
2023-01-28T08:06:09.066Z,26.83
2023-01-28T08:08:35.379Z,26.25
2023-01-28T08:11:08.770Z,28.02
2023-01-28T08:13:35.627Z,28.35
2023-01-28T08:16:02.369Z,25.55
2023-01-28T08:18:29.077Z,26.02
2023-01-28T08:20:56.869Z,31.02
2023-01-28T08:23:24.522Z,27.23
2023-01-28T08:25:50.974Z,30.50
2023-01-28T08:28:17.944Z,29.15
2023-01-28T08:30:44.853Z,26.45
2023-01-28T08:33:13.297Z,25.52
2023-01-28T08:35:40.390Z,26.00
2023-01-28T08:38:07.871Z,26.27
2023-01-28T08:40:34.878Z,25.35
2023-01-28T08:43:01.386Z,28.20
2023-01-28T08:45:28.650Z,27.65
2023-01-28T08:47:57.795Z,26.05
2023-01-28T08:50:27.564Z,26.40
2023-01-28T08:52:58.588Z,27.42
2023-01-28T08:55:26.650Z,27.38
2023-01-28T08:57:53.473Z,27.25
2023-01-28T09:00:21.020Z,28.23
2023-01-28T09:02:47.866Z,27.90
2023-01-28T09:05:15.194Z,27.38
2023-01-28T09:07:41.654Z,25.30
2023-01-28T09:10:09.053Z,22.50
2023-01-28T09:12:36.489Z,23.67
2023-01-28T09:15:03.438Z,22.27
2023-01-28T09:17:29.790Z,21.63
2023-01-28T09:19:56.074Z,23.95
2023-01-28T09:22:22.691Z,22.73
2023-01-28T09:24:48.981Z,23.00
2023-01-28T09:27:15.439Z,20.15
2023-01-28T09:29:41.778Z,20.70
2023-01-28T09:32:08.326Z,20.50
2023-01-28T09:34:34.767Z,20.13
2023-01-28T09:37:01.597Z,20.38
2023-01-28T09:39:30.858Z,20.27
2023-01-28T09:42:15.396Z,20.55
2023-01-28T09:44:54.009Z,20.65
2023-01-28T09:47:43.076Z,16.95
2023-01-28T09:50:39.798Z,19.38
2023-01-28T09:53:15.929Z,18.02
2023-01-28T09:55:54.579Z,17.20
2023-01-28T09:58:20.929Z,15.23
2023-01-28T10:01:04.479Z,17.10
2023-01-28T10:03:36.666Z,14.27
2023-01-28T10:06:14.756Z,15.13
2023-01-28T10:09:05.119Z,15.38
2023-01-28T10:11:40.427Z,14.57
2023-01-28T10:14:30.718Z,18.38
2023-01-28T10:17:16.504Z,15.15
2023-01-28T10:19:49.002Z,15.82
2023-01-28T10:22:31.057Z,17.45
2023-01-28T10:25:06.137Z,14.75
2023-01-28T10:27:35.999Z,14.07
2023-01-28T10:30:17.860Z,15.90
2023-01-28T10:32:52.382Z,14.35
2023-01-28T10:35:19.457Z,14.93
2023-01-28T10:37:46.390Z,14.23
2023-01-28T10:40:17.253Z,15.93
2023-01-28T10:42:44.927Z,13.50
2023-01-28T10:45:20.240Z,16.67
2023-01-28T10:47:54.377Z,14.73
2023-01-28T10:50:24.838Z,14.35
2023-01-28T10:53:00.228Z,14.35
2023-01-28T10:55:31.945Z,15.23
2023-01-28T10:57:59.269Z,15.77
2023-01-28T11:00:30.845Z,12.95
2023-01-28T11:02:57.828Z,12.85
2023-01-28T11:05:29.554Z,15.43
2023-01-28T11:08:15.745Z,14.70
2023-01-28T11:10:43.476Z,13.52
2023-01-28T11:13:26.436Z,14.65
2023-01-28T11:16:04.129Z,14.15
2023-01-28T11:18:35.036Z,12.85
2023-01-28T11:21:04.668Z,13.00
2023-01-28T11:23:34.720Z,15.38
2023-01-28T11:26:05.848Z,12.68
2023-01-28T11:28:32.977Z,15.73
2023-01-28T11:31:03.388Z,14.18
2023-01-28T11:33:37.859Z,13.27
2023-01-28T11:36:08.429Z,13.43
2023-01-28T11:38:35.167Z,13.40
2023-01-28T11:41:01.645Z,14.68
2023-01-28T11:43:30.854Z,14.23
2023-01-28T11:46:00.946Z,13.63
2023-01-28T11:48:45.544Z,12.88
2023-01-28T11:51:33.241Z,13.57
2023-01-28T11:54:04.866Z,11.90
2023-01-28T11:56:40.765Z,12.00
2023-01-28T11:59:32.169Z,12.70
2023-01-28T12:02:01.523Z,13.68
2023-01-28T12:04:34.160Z,13.45
2023-01-28T12:07:21.306Z,11.88
2023-01-28T12:09:56.860Z,12.43
2023-01-28T12:12:52.703Z,13.07
2023-01-28T12:15:50.077Z,11.77
2023-01-28T12:18:31.382Z,13.13
2023-01-28T12:21:10.602Z,12.00
2023-01-28T12:23:58.393Z,12.52
2023-01-28T12:26:28.069Z,12.35
2023-01-28T12:29:01.183Z,11.60
2023-01-28T12:31:35.497Z,12.15
2023-01-28T12:34:17.248Z,10.07
2023-01-28T12:36:58.956Z,10.15
2023-01-28T12:39:25.389Z,10.90
2023-01-28T12:42:20.592Z,11.68
2023-01-28T12:44:53.201Z,10.90
2023-01-28T12:47:28.204Z,12.45
2023-01-28T12:50:02.047Z,9.85
2023-01-28T12:52:34.032Z,10.25
2023-01-28T12:55:28.680Z,11.32
2023-01-28T12:57:58.945Z,11.80
2023-01-28T13:00:30.201Z,10.52
2023-01-28T13:03:19.804Z,10.68
2023-01-28T13:05:57.857Z,9.90
2023-01-28T13:08:27.281Z,12.50
2023-01-28T13:10:56.762Z,11.18
2023-01-28T13:13:34.979Z,13.73
2023-01-28T13:16:02.847Z,13.70
2023-01-28T13:18:44.539Z,12.50
2023-01-28T13:21:25.207Z,13.82
2023-01-28T13:24:10.026Z,13.00
2023-01-28T13:26:44.087Z,14.48
2023-01-28T13:29:21.933Z,12.65
2023-01-28T13:31:52.373Z,14.57
2023-01-28T13:34:51.010Z,13.27
2023-01-28T13:37:40.544Z,14.23
2023-01-28T13:40:13.148Z,14.80
2023-01-28T13:42:40.581Z,18.27
2023-01-28T13:45:16.526Z,15.80
2023-01-28T13:47:50.336Z,13.88
2023-01-28T13:50:42.162Z,14.43
2023-01-28T13:53:41.835Z,15.70
2023-01-28T13:56:19.812Z,14.13
2023-01-28T13:59:04.543Z,18.23
2023-01-28T14:01:51.264Z,16.17
2023-01-28T14:04:49.913Z,15.50
2023-01-28T14:07:43.317Z,16.10
2023-01-28T14:12:52.431Z,14.45
2023-01-28T14:15:49.803Z,16.63
2023-01-28T14:18:22.525Z,16.27
2023-01-28T14:20:49.698Z,15.00
2023-01-28T14:23:19.249Z,16.88
2023-01-28T14:26:15.162Z,15.40
2023-01-28T14:29:00.351Z,17.35
2023-01-28T14:31:32.471Z,18.83
2023-01-28T14:34:20.092Z,14.75
2023-01-28T14:36:48.892Z,15.68
2023-01-28T14:39:43.411Z,16.75
2023-01-28T14:42:29.953Z,17.27
2023-01-28T14:45:39.839Z,15.13
2023-01-28T14:48:19.740Z,15.65
2023-01-28T14:51:07.574Z,18.65
2023-01-28T14:53:58.811Z,17.27
2023-01-28T14:56:36.699Z,15.57
2023-01-28T14:59:16.040Z,15.63
2023-01-28T15:01:49.449Z,16.05
2023-01-28T15:04:45.872Z,14.80
2023-01-28T15:07:23.669Z,17.27
2023-01-28T15:10:41.160Z,15.38
2023-01-28T15:13:13.874Z,15.18
2023-01-28T15:15:41.541Z,14.88
2023-01-28T15:18:33.130Z,16.27
2023-01-28T15:21:01.749Z,13.68
2023-01-28T15:23:33.305Z,14.90
2023-01-28T15:26:21.645Z,14.65
2023-01-28T15:28:49.577Z,14.27
2023-01-28T15:31:22.997Z,15.50
2023-01-28T15:34:13.715Z,15.65
2023-01-28T15:36:40.737Z,15.00
2023-01-28T15:39:41.049Z,16.65
2023-01-28T15:42:29.355Z,16.48
2023-01-28T15:44:58.287Z,15.10
2023-01-28T15:47:33.981Z,14.15
2023-01-28T15:50:04.669Z,16.45
2023-01-28T15:52:37.710Z,14.15
2023-01-28T15:55:24.081Z,14.70
2023-01-28T15:58:30.284Z,16.63
2023-01-28T16:01:26.596Z,16.45
2023-01-28T16:04:07.205Z,20.20
2023-01-28T16:06:46.864Z,17.60
2023-01-28T16:09:43.780Z,17.67
2023-01-28T16:12:13.936Z,18.92
2023-01-28T16:15:05.914Z,19.02
2023-01-28T16:17:44.540Z,16.02
2023-01-28T16:20:24.369Z,16.05
2023-01-28T16:22:54.568Z,17.50
2023-01-28T16:25:21.075Z,18.02
2023-01-28T16:27:48.368Z,18.83
2023-01-28T16:30:31.477Z,19.83
2023-01-28T16:35:52.051Z,19.52
2023-01-28T16:38:19.780Z,20.80
2023-01-28T16:40:47.329Z,20.45
2023-01-28T16:43:15.522Z,23.58
2023-01-28T16:45:42.600Z,23.08
2023-01-28T16:48:08.966Z,23.65
2023-01-28T16:50:38.620Z,21.40
2023-01-28T16:53:06.124Z,20.92
2023-01-28T16:55:32.596Z,23.23
2023-01-28T16:57:59.085Z,20.48
2023-01-28T17:00:27.520Z,22.52
2023-01-28T17:02:54.675Z,20.40
2023-01-28T17:05:27.418Z,22.45
2023-01-28T17:07:56.253Z,20.85
2023-01-28T17:10:22.656Z,25.98
2023-01-28T17:12:49.128Z,23.23
2023-01-28T17:15:15.950Z,21.75
2023-01-28T17:17:42.402Z,21.90
2023-01-28T17:20:09.555Z,21.67
2023-01-28T17:22:36.401Z,23.42
2023-01-28T17:25:02.786Z,23.67
2023-01-28T17:27:29.262Z,23.90
2023-01-28T17:29:55.623Z,24.30
2023-01-28T17:32:23.202Z,23.58
2023-01-28T17:34:49.784Z,25.98
2023-01-28T17:37:16.434Z,24.95
2023-01-28T17:39:43.065Z,25.48
2023-01-28T17:42:09.639Z,22.17
2023-01-28T17:44:36.081Z,22.48
2023-01-28T17:47:02.667Z,23.92
2023-01-28T17:49:30.192Z,25.80
2023-01-28T17:51:56.644Z,24.48
2023-01-28T17:54:26.773Z,27.98
2023-01-28T17:56:53.338Z,21.85
2023-01-28T17:59:21.112Z,20.85
2023-01-28T18:01:49.375Z,22.27
2023-01-28T18:04:15.888Z,22.48
2023-01-28T18:06:42.428Z,23.20
2023-01-28T18:09:09.268Z,24.80
2023-01-28T18:11:35.906Z,26.42
2023-01-28T18:14:02.382Z,21.20
2023-01-28T18:16:28.872Z,21.88
2023-01-28T18:18:55.356Z,21.52
2023-01-28T18:21:56.937Z,21.98
2023-01-28T18:24:25.666Z,21.52
2023-01-28T18:26:55.391Z,19.23
2023-01-28T18:29:23.966Z,18.95
2023-01-28T18:31:55.195Z,22.55
2023-01-28T18:34:26.723Z,20.42
2023-01-28T18:36:53.697Z,22.13
2023-01-28T18:39:21.632Z,23.30
2023-01-28T18:41:48.032Z,22.38
2023-01-28T18:44:16.209Z,20.40
2023-01-28T18:46:42.948Z,17.67
2023-01-28T18:49:09.460Z,19.75
2023-01-28T18:51:35.970Z,21.95
2023-01-28T18:54:04.524Z,21.45
2023-01-28T18:56:31.735Z,23.00
2023-01-28T18:58:59.824Z,22.63
2023-01-28T19:01:27.059Z,20.23
2023-01-28T19:03:57.913Z,23.33
2023-01-28T19:06:25.670Z,22.85
2023-01-28T19:08:58.033Z,19.90
2023-01-28T19:11:26.435Z,20.90
2023-01-28T19:13:52.925Z,23.02
2023-01-28T19:16:20.793Z,21.73
2023-01-28T19:18:55.474Z,22.30
2023-01-28T19:21:24.900Z,24.27
2023-01-28T19:24:03.262Z,22.80
2023-01-28T19:26:31.479Z,22.48
2023-01-28T19:28:58.844Z,21.23
2023-01-28T19:31:26.470Z,21.50
2023-01-28T19:33:58.126Z,22.55
2023-01-28T19:36:26.822Z,21.20
2023-01-28T19:38:56.943Z,23.70
2023-01-28T19:41:23.692Z,21.90
2023-01-28T19:43:50.221Z,23.48
2023-01-28T19:46:17.612Z,23.40
2023-01-28T19:48:44.931Z,24.38
2023-01-28T19:51:13.432Z,21.70
2023-01-28T19:53:41.337Z,22.52
2023-01-28T19:56:10.725Z,23.42
2023-01-28T19:58:39.542Z,23.73
2023-01-28T20:01:07.485Z,23.55
2023-01-28T20:03:34.600Z,28.63
2023-01-28T20:06:02.577Z,22.55
2023-01-28T20:08:29.467Z,23.27
2023-01-28T20:11:15.576Z,26.65
2023-01-28T20:13:43.872Z,22.45
2023-01-28T20:16:21.384Z,23.42
2023-01-28T20:18:56.232Z,23.60
2023-01-28T20:21:23.535Z,23.20
2023-01-28T20:23:52.232Z,24.73
2023-01-28T20:26:23.952Z,21.75
2023-01-28T20:28:51.420Z,22.55
2023-01-28T20:31:19.146Z,21.55
2023-01-28T20:33:45.710Z,22.38
2023-01-28T20:36:13.942Z,23.60
2023-01-28T20:38:45.368Z,21.20
2023-01-28T20:41:17.363Z,25.60
2023-01-28T20:43:44.958Z,17.30
2023-01-28T20:46:14.431Z,24.77
2023-01-28T20:48:41.705Z,25.65
2023-01-28T20:51:13.221Z,26.17
2023-01-28T20:53:40.285Z,22.85
2023-01-28T20:56:07.939Z,26.80
2023-01-28T20:58:34.415Z,23.85
2023-01-28T21:01:01.378Z,27.20
2023-01-28T21:03:27.924Z,25.75
2023-01-28T21:05:54.455Z,30.80
2023-01-28T21:08:20.989Z,27.33
2023-01-28T21:10:47.825Z,25.80
2023-01-28T21:13:15.432Z,26.90
2023-01-28T21:15:52.102Z,26.10
2023-01-28T21:18:18.612Z,24.77
2023-01-28T21:20:45.045Z,26.05
2023-01-28T21:23:14.985Z,24.45
2023-01-28T21:25:42.599Z,25.58
2023-01-28T21:28:13.445Z,26.63
2023-01-28T21:30:40.022Z,25.38
2023-01-28T21:33:06.608Z,25.23
2023-01-28T21:35:40.615Z,26.90
2023-01-28T21:38:07.357Z,27.38
2023-01-28T21:40:35.058Z,27.45
2023-01-28T21:43:02.023Z,27.50
2023-01-28T21:45:28.526Z,28.60
2023-01-28T21:47:55.095Z,29.63
2023-01-28T21:50:23.057Z,28.35
2023-01-28T21:52:51.012Z,26.45
2023-01-28T21:55:18.499Z,25.65
2023-01-28T21:57:45.001Z,27.42
2023-01-28T22:00:12.976Z,28.90
2023-01-28T22:02:39.965Z,27.73
2023-01-28T22:05:07.091Z,27.25
2023-01-28T22:07:33.555Z,24.80
2023-01-28T22:09:59.910Z,27.23
2023-01-28T22:12:28.150Z,26.58
2023-01-28T22:14:54.917Z,30.13
2023-01-28T22:17:21.464Z,27.63
2023-01-28T22:19:48.258Z,28.58
2023-01-28T22:22:15.836Z,25.05
2023-01-28T22:24:42.436Z,28.30
2023-01-28T22:27:09.372Z,28.85
2023-01-28T22:29:35.831Z,26.05
2023-01-28T22:32:04.684Z,24.35
2023-01-28T22:34:31.403Z,26.95
2023-01-28T22:36:57.949Z,27.88
